DW6457 Weather Reports


Display with metric or nautical units.
time (UTC)temp
F
wind
direction
speed
MPH
gust
MPH
rain 1hr
in
rain 24hr
in
rain mn
in
humidity
%
barometer
mb
20200401034039 38 280 0.0 2.0 0.00 0.27 0.27 67 1013.5
20200401033538 37 307 0.0 3.0 0.00 0.27 0.27 69 1013.3
20200401033052 38 310 1.0 3.0 0.00 0.27 0.27 67 1013.2
20200401032543 38 285 1.0 10.0 0.00 0.27 0.27 66 1013.5
20200401032050 38 295 6.0 10.0 0.00 0.27 0.27 65 1013.2
20200401031559 38 311 6.0 12.0 0.00 0.27 0.27 65 1013.1
20200401031037 39 309 8.0 12.0 0.00 0.27 0.27 62 1013.2
20200401030535 40 305 8.0 12.0 0.00 0.27 0.27 60 1013.2
20200401030141 41 300 8.0 14.0 0.00 0.27 0.27 57 1013.1
20200401025538 41 296 9.0 14.0 0.00 0.27 0.27 56 1013.1
20200401025105 41 304 6.0 13.0 0.00 0.27 0.27 56 1013.2
20200401024539 41 308 6.0 12.0 0.00 0.27 0.27 57 1013.2
20200401024031 42 290 5.0 12.0 0.00 0.27 0.27 57 1013.2
20200401023532 42 311 2.0 12.0 0.00 0.27 0.27 56 1013.0
20200401023132 42 301 4.0 17.0 0.00 0.27 0.27 53 1013.0
20200401022531 43 288 11.0 17.0 0.00 0.27 0.27 52 1012.9
20200401022034 43 297 10.0 15.0 0.00 0.27 0.27 52 1013.0
20200401021542 44 308 5.0 13.0 0.00 0.27 0.27 52 1013.0
20200401021037 44 314 1.0 11.0 0.00 0.27 0.27 53 1012.9
20200401020539 44 323 4.0 13.0 0.00 0.27 0.27 54 1012.8
20200401020136 44 314 3.0 13.0 0.00 0.27 0.27 55 1012.7
20200401015529 44 296 2.0 17.0 0.00 0.27 0.27 55 1012.4
20200401015029 45 301 11.0 18.0 0.00 0.27 0.27 54 1012.2
20200401014542 45 293 11.0 18.0 0.00 0.27 0.27 53 1012.1
20200401014029 45 310 12.0 19.0 0.00 0.27 0.27 52 1012.2
20200401013536 45 280 13.0 19.0 0.00 0.27 0.27 52 1012.0
20200401013044 45 293 10.0 17.0 0.00 0.27 0.27 58 1012.2
20200401012527 45 301 10.0 19.0 0.00 0.27 0.27 56 1012.3
20200401012027 45 293 12.0 19.0 0.00 0.27 0.27 57 1012.1
20200401011530 45 310 10.0 16.0 0.00 0.27 0.27 58 1012.2
20200401011030 45 305 9.0 17.0 0.00 0.27 0.27 58 1012.3
20200401010534 45 314 12.0 17.0 0.00 0.27 0.27 56 1012.2
20200401010044 45 310 8.0 14.0 0.00 0.27 0.27 58 1012.0
20200401005538 45 313 8.0 18.0 0.00 0.27 0.27 58 1012.0
20200401005030 46 314 12.0 18.0 0.00 0.27 0.27 57 1011.9
20200401004613 46 322 12.0 18.0 0.00 0.27 0.27 58 1011.8
20200401004036 47 309 11.0 19.0 0.00 0.27 0.27 59 1012.0
20200401003528 46 312 10.0 16.0 0.00 0.27 0.27 60 1012.1
20200401003031 46 312 10.0 16.0 0.00 0.27 0.27 60 1012.0
20200401002524 46 302 10.0 18.0 0.00 0.27 0.27 60 1011.9
20200401002027 47 327 14.0 18.0 0.00 0.27 0.27 61 1011.8
20200401001527 47 311 12.0 20.0 0.00 0.27 0.27 63 1011.6
20200401001037 47 314 12.0 20.0 0.00 0.27 0.27 63 1011.5
20200401000528 47 308 14.0 19.0 0.00 0.27 0.27 64 1011.5
20200401000035 47 299 12.0 18.0 0.00 0.27 0.27 64 1011.5
20200331235522 47 299 12.0 23.0 0.00 0.27 0.27 65 1011.4
20200331235022 47 324 16.0 23.0 0.00 0.27 0.27 63 1011.5
20200331234551 47 312 14.0 23.0 0.00 0.27 0.27 64 1011.4
20200331234025 47 299 16.0 23.0 0.00 0.27 0.27 63 1011.4
20200331233534 49 316 12.0 20.0 0.00 0.27 0.27 66 1011.3
20200331233111 49 312 14.0 20.0 0.00 0.27 0.27 62 1011.2
20200331232519 49 314 14.0 21.0 0.00 0.27 0.27 60 1011.2
20200331232031 49 297 11.0 21.0 0.00 0.27 0.27 64 1011.3
20200331231529 49 310 10.0 22.0 0.00 0.27 0.27 65 1011.4
20200331231017 49 322 13.0 22.0 0.00 0.27 0.27 65 1011.3
20200331230518 49 347 10.0 19.0 0.00 0.27 0.27 67 1011.1
20200331230036 49 320 10.0 19.0 0.00 0.27 0.27 69 1011.1
20200331225519 49 307 9.0 19.0 0.00 0.27 0.27 71 1010.9
20200331225018 49 310 12.0 22.0 0.00 0.27 0.27 69 1010.7
20200331224532 49 313 14.0 24.0 0.00 0.27 0.27 73 1010.7
20200331224017 49 299 16.0 24.0 0.00 0.27 0.27 71 1010.7
20200331223517 49 307 14.0 24.0 0.00 0.27 0.27 74 1010.6
20200331223047 49 332 16.0 24.0 0.00 0.27 0.27 73 1010.6
20200331222517 49 303 13.0 23.0 0.00 0.27 0.27 71 1010.5
20200331222018 48 313 15.0 27.0 0.00 0.27 0.27 70 1010.3
20200331221531 49 304 17.0 30.0 0.00 0.27 0.27 69 1010.1
20200331221016 50 299 18.0 30.0 0.00 0.27 0.27 69 1010.0
20200331220520 50 303 11.0 24.0 0.00 0.27 0.27 72 1010.0
20200331220040 50 301 16.0 26.0 0.00 0.27 0.27 71 1009.8
20200331215515 52 306 12.0 24.0 0.00 0.27 0.27 66 1009.8
20200331215030 52 264 7.0 15.0 0.00 0.27 0.27 66 1009.4
20200331214515 50 189 1.0 5.0 0.00 0.27 0.27 76 1009.5
20200331214011 50 127 0.0 3.0 0.00 0.27 0.27 78 1009.4
20200331213514 49 85 1.0 3.0 0.00 0.27 0.27 75 1009.4
20200331213044 49 76 0.0 3.0 0.00 0.27 0.27 75 1009.5
20200331212512 49 66 0.0 3.0 0.00 0.27 0.27 79 1009.6
20200331212023 49 50 0.0 2.0 0.00 0.27 0.27 76 1009.6
20200331211530 49 350 0.0 2.0 0.00 0.27 0.27 74 1009.7
20200331211009 49 350 0.0 4.0 0.00 0.27 0.27 75 1009.6
20200331210508 49 326 1.0 9.0 0.00 0.27 0.27 72 1009.6
20200331210011 50 291 5.0 12.0 0.00 0.27 0.27 70 1009.9
20200331205509 50 310 7.0 12.0 0.00 0.27 0.27 70 1009.9
20200331205005 50 206 0.0 10.0 0.00 0.27 0.27 74 1009.7
20200331204510 50 176 3.0 10.0 0.00 0.27 0.27 76 1009.7
20200331204014 50 245 2.0 9.0 0.00 0.27 0.27 75 1009.8
20200331203508 51 151 2.0 9.0 0.00 0.27 0.27 77 1009.7
20200331203003 50 160 3.0 9.0 0.00 0.27 0.27 78 1009.5
20200331202502 50 178 4.0 8.0 0.00 0.27 0.27 74 1009.7
20200331202100 50 172 3.0 8.0 0.00 0.27 0.27 78 1009.7
20200331201622 49 189 3.0 8.0 0.00 0.27 0.27 78 1009.9
20200331201058 48 170 3.0 10.0 0.00 0.27 0.27 78 1010.0
20200331200557 48 184 3.0 16.0 0.00 0.27 0.27 79 1010.2
20200331200213 48 154 5.0 16.0 0.00 0.27 0.27 79 1010.1
20200331195556 48 181 6.0 13.0 0.00 0.27 0.27 78 1009.9
20200331195101 48 161 3.0 8.0 0.00 0.27 0.27 80 1009.8
20200331194715 48 195 2.0 5.0 0.00 0.27 0.27 80 1009.8
20200331194054 48 200 1.0 6.0 0.00 0.27 0.27 83 1009.7
20200331193553 47 189 2.0 6.0 0.00 0.27 0.27 81 1009.6
20200331193209 47 201 1.0 5.0 0.02 0.27 0.27 81 1009.8
20200331192551 47 195 1.0 5.0 0.04 0.27 0.27 85 1010.0
20200331192052 46 196 1.0 3.0 0.05 0.27 0.27 86 1010.0
20200331191706 45 194 0.0 3.0 0.06 0.27 0.27 84 1010.1
20200331191055 45 199 0.0 3.0 0.06 0.27 0.27 84 1010.1
20200331190557 45 228 1.0 3.0 0.06 0.27 0.27 85 1010.3
20200331190133 45 218 0.0 3.0 0.06 0.27 0.27 87 1010.4
20200331185604 44 269 0.0 6.0 0.06 0.27 0.27 89 1010.5
20200331185054 43 251 2.0 6.0 0.08 0.27 0.27 89 1010.7
20200331184657 43 234 0.0 10.0 0.08 0.27 0.27 91 1011.0
20200331184048 42 264 2.0 10.0 0.08 0.27 0.27 91 1011.2
20200331183557 42 235 1.0 10.0 0.07 0.26 0.26 91 1011.2
20200331183230 42 258 1.0 13.0 0.06 0.25 0.25 91 1011.4
20200331182557 42 278 6.0 20.0 0.04 0.23 0.23 90 1011.4
20200331182053 43 274 11.0 20.0 0.02 0.21 0.21 90 1011.3
20200331181607 43 320 12.0 21.0 0.02 0.21 0.21 89 1010.7
20200331181052 43 300 13.0 19.0 0.02 0.21 0.21 89 1010.7
20200331180545 44 323 15.0 19.0 0.02 0.21 0.21 89 1010.4
20200331180149 44 307 13.0 18.0 0.02 0.21 0.21 89 1010.6
20200331175545 45 291 10.0 16.0 0.01 0.20 0.20 87 1010.6
20200331175050 47 304 6.0 10.0 0.00 0.19 0.19 87 1010.6
20200331174546 47 312 1.0 4.0 0.00 0.19 0.19 87 1010.4
20200331174050 47 31 0.0 4.0 0.00 0.19 0.19 86 1010.4
20200331173545 47 356 0.0 4.0 0.00 0.19 0.19 87 1010.1
20200331173108 47 69 0.0 2.0 0.00 0.19 0.19 87 1010.3
20200331172543 47 69 0.0 2.0 0.00 0.19 0.19 87 1010.4
20200331172039 47 1 0.0 2.0 0.00 0.19 0.19 88 1010.2
20200331171616 47 57 0.0 2.0 0.01 0.19 0.19 90 1010.3
20200331171039 47 58 0.0 1.0 0.01 0.19 0.19 91 1010.4
20200331170536 46 84 0.0 0.0 0.01 0.19 0.19 91 1010.3
20200331170037 46 85 0.0 1.0 0.02 0.19 0.19 90 1010.6
20200331165533 46 84 0.0 1.0 0.03 0.19 0.19 91 1010.7
20200331165030 46 332 0.0 0.0 0.03 0.19 0.19 91 1010.9
20200331164542 45 332 0.0 0.0 0.03 0.19 0.19 92 1011.0
20200331164029 46 134 0.0 0.0 0.04 0.19 0.19 94 1010.9
20200331163528 45 134 0.0 0.0 0.04 0.19 0.19 93 1011.0
20200331163052 44 134 0.0 0.0 0.04 0.19 0.19 93 1010.9
20200331162526 44 134 0.0 2.0 0.04 0.19 0.19 93 1011.3
20200331162043 43 154 0.0 4.0 0.04 0.19 0.19 93 1011.4
20200331161536 43 136 1.0 6.0 0.04 0.18 0.18 93 1011.2
20200331161022 43 162 1.0 6.0 0.05 0.18 0.18 93 1011.6
20200331160526 43 103 0.0 0.0 0.06 0.18 0.18 92 1011.6
20200331160108 43 188 0.0 0.0 0.05 0.17 0.17 92 1011.7
20200331155522 43 188 0.0 0.0 0.04 0.16 0.16 92 1011.8
20200331155021 43 188 0.0 3.0 0.04 0.16 0.16 92 1011.7
20200331154602 42 151 0.0 5.0 0.04 0.16 0.16 92 1011.7
20200331154021 42 160 1.0 10.0 0.03 0.15 0.15 92 1011.6
20200331153522 42 153 2.0 10.0 0.04 0.15 0.15 92 1011.8
20200331153031 42 155 3.0 9.0 0.04 0.15 0.15 92 1011.8
20200331152521 42 171 4.0 7.0 0.04 0.15 0.15 92 1011.9
20200331152021 42 193 3.0 7.0 0.04 0.15 0.15 93 1011.9
20200331151527 42 203 0.0 5.0 0.03 0.14 0.14 93 1011.9
20200331151026 42 149 0.0 5.0 0.02 0.13 0.13 93 1011.7
20200331150521 42 203 1.0 4.0 0.01 0.12 0.12 93 1011.8
20200331150025 42 145 2.0 7.0 0.01 0.12 0.12 93 1011.8
20200331145525 42 141 3.0 9.0 0.01 0.12 0.12 93 1011.8
20200331145030 42 142 4.0 9.0 0.01 0.12 0.12 93 1011.7
20200331144545 41 133 3.0 7.0 0.01 0.12 0.12 93 1011.8
20200331144019 41 116 1.0 3.0 0.01 0.12 0.12 93 1011.5
20200331143534 41 93 0.0 3.0 0.00 0.11 0.11 93 1011.6
20200331143055 41 83 0.0 2.0 0.00 0.11 0.11 93 1011.7
20200331142519 41 97 0.0 3.0 0.00 0.11 0.11 93 1011.9
20200331142017 41 104 1.0 3.0 0.00 0.11 0.11 93 1011.6
20200331141517 41 97 0.0 3.0 0.00 0.11 0.11 93 1011.7
20200331141015 41 95 1.0 3.0 0.00 0.11 0.11 93 1011.6
20200331140516 41 124 0.0 2.0 0.00 0.11 0.11 93 1011.7
20200331140021 40 123 0.0 3.0 0.00 0.11 0.11 93 1011.7
20200331135514 40 124 1.0 4.0 0.00 0.11 0.11 93 1011.8
20200331135018 40 119 1.0 4.0 0.00 0.11 0.11 93 1011.9
20200331134515 40 119 1.0 4.0 0.00 0.11 0.11 92 1011.9
20200331134012 40 118 2.0 4.0 0.00 0.11 0.11 92 1011.9
20200331133511 40 118 1.0 6.0 0.00 0.11 0.11 92 1012.0
20200331133012 40 115 2.0 6.0 0.00 0.11 0.11 92 1011.9
20200331132518 40 124 2.0 6.0 0.00 0.11 0.11 92 1012.0
20200331132010 40 128 2.0 6.0 0.00 0.11 0.11 92 1012.0
20200331131518 40 126 1.0 3.0 0.00 0.11 0.11 91 1011.9
20200331131007 40 112 1.0 3.0 0.00 0.11 0.11 91 1012.1
20200331130507 41 110 2.0 3.0 0.00 0.11 0.11 92 1012.2
20200331130007 41 100 1.0 2.0 0.00 0.11 0.11 91 1012.3
20200331125505 41 134 0.0 2.0 0.00 0.11 0.11 91 1012.4
20200331125005 41 135 0.0 0.0 0.00 0.11 0.11 91 1012.4
20200331124507 41 146 0.0 1.0 0.00 0.11 0.11 91 1012.7
20200331124005 41 146 0.0 1.0 0.00 0.11 0.11 91 1012.8
20200331123506 41 147 0.0 2.0 0.00 0.11 0.11 91 1012.8
20200331123005 41 147 0.0 2.0 0.00 0.11 0.11 91 1012.8
20200331122503 41 161 0.0 1.0 0.00 0.11 0.11 90 1012.7
20200331122004 41 180 0.0 0.0 0.00 0.11 0.11 90 1012.5
20200331121505 41 180 0.0 0.0 0.00 0.11 0.11 91 1012.6
20200331121013 41 180 0.0 0.0 0.00 0.11 0.11 91 1012.6
20200331120502 41 180 0.0 0.0 0.00 0.11 0.11 91 1012.6
20200331120002 41 180 0.0 0.0 0.00 0.11 0.11 91 1012.7
20200331115501 42 180 0.0 0.0 0.00 0.11 0.11 91 1012.8
20200331114838 42 180 0.0 0.0 0.00 0.11 0.11 90 1012.9
20200331114109 42 245 0.0 0.0 0.00 0.11 0.11 90 1013.0
20200331114002 42 245 0.0 0.0 0.00 0.11 0.11 90 1013.0
20200331113606 42 245 0.0 0.0 0.00 0.11 0.11 90 1013.0
20200331113114 42 245 0.0 0.0 0.00 0.11 0.11 90 1013.1
20200331112559 42 245 0.0 0.0 0.00 0.11 0.11 90 1013.0
20200331112105 42 245 0.0 0.0 0.01 0.11 0.11 90 1013.1
20200331111755 42 245 0.0 0.0 0.01 0.11 0.11 90 1013.1
20200331111058 42 245 0.0 0.0 0.01 0.11 0.11 90 1013.0
20200331110601 42 245 0.0 0.0 0.01 0.11 0.11 90 1012.9
20200331110140 42 245 0.0 0.0 0.02 0.11 0.11 90 1012.8
20200331105559 43 245 0.0 0.0 0.02 0.11 0.11 90 1012.8
20200331105129 43 245 0.0 0.0 0.02 0.11 0.11 90 1012.8
20200331104809 42 245 0.0 0.0 0.02 0.11 0.11 90 1012.8
20200331104055 42 245 0.0 0.0 0.03 0.11 0.11 90 1012.9
20200331103601 42 245 0.0 0.0 0.04 0.11 0.11 90 1012.9
20200331103203 43 245 0.0 0.0 0.04 0.11 0.11 90 1012.8
20200331102557 43 270 0.0 1.0 0.05 0.11 0.11 90 1013.1
20200331102054 43 270 0.0 1.0 0.04 0.10 0.10 90 1013.1
20200331101636 43 254 0.0 2.0 0.04 0.10 0.10 90 1013.2
20200331101106 43 255 0.0 2.0 0.05 0.10 0.10 89 1013.2
20200331100556 43 276 0.0 5.0 0.05 0.10 0.10 89 1013.3
20200331100117 43 287 0.0 5.0 0.04 0.09 0.09 89 1013.4
20200331095554 43 292 0.0 10.0 0.04 0.09 0.09 89 1013.4
20200331095053 43 290 4.0 11.0 0.04 0.09 0.09 89 1013.4
20200331094636 43 282 2.0 11.0 0.04 0.09 0.09 89 1013.5
20200331094051 43 281 3.0 12.0 0.03 0.08 0.08 89 1013.5
20200331093556 43 267 8.0 19.0 0.02 0.07 0.07 88 1013.3
20200331093112 43 270 8.0 19.0 0.02 0.07 0.07 88 1013.3
20200331092607 43 281 7.0 13.0 0.02 0.06 0.06 88 1013.3
20200331092130 44 264 8.0 14.0 0.02 0.06 0.06 88 1013.3
20200331091045 44 297 0.0 9.0 0.01 0.05 0.05 87 1013.2
20200331090545 44 281 2.0 11.0 0.01 0.05 0.05 86 1013.2
20200331090111 44 281 7.0 11.0 0.01 0.05 0.05 86 1013.0
20200331085545 44 277 4.0 10.0 0.01 0.05 0.05 85 1013.1
20200331085040 44 273 0.0 7.0 0.01 0.05 0.05 85 1013.0
20200331084551 44 270 0.0 6.0 0.02 0.05 0.05 86 1013.0
20200331084040 44 274 0.0 2.0 0.02 0.05 0.05 86 1013.1
20200331083543 44 266 0.0 3.0 0.02 0.05 0.05 86 1013.0
20200331083123 44 279 0.0 7.0 0.01 0.04 0.04 86 1013.0
20200331082539 44 259 0.0 7.0 0.02 0.04 0.04 86 1012.9
20200331082038 45 255 0.0 2.0 0.02 0.04 0.04 86 1012.9
20200331081704 45 231 0.0 9.0 0.02 0.04 0.04 86 1012.9
20200331081040 45 254 0.0 9.0 0.02 0.04 0.04 86 1012.7
20200331080536 45 278 0.0 3.0 0.02 0.04 0.04 85 1012.8
20200331080305 45 241 0.0 9.0 0.02 0.04 0.04 85 1012.8
20200331075543 45 264 1.0 9.0 0.02 0.04 0.04 85 1012.8
20200331075039 45 273 1.0 11.0 0.02 0.04 0.04 85 1012.9
20200331074604 45 250 1.0 11.0 0.02 0.03 0.03 84 1012.9
20200331074036 45 250 3.0 15.0 0.02 0.03 0.03 84 1012.8
20200331073531 46 238 2.0 15.0 0.02 0.03 0.03 84 1012.7
20200331073042 46 253 5.0 15.0 0.02 0.03 0.03 83 1012.7
20200331072528 46 270 1.0 12.0 0.01 0.02 0.02 83 1012.6
20200331072043 46 237 1.0 11.0 0.01 0.02 0.02 83 1012.6
20200331071629 46 228 1.0 11.0 0.02 0.02 0.02 83 1012.4
20200331071031 46 212 2.0 11.0 0.02 0.02 0.02 84 1012.5
20200331070525 46 293 1.0 11.0 0.02 0.02 0.02 84 1012.7
20200331070046 46 272 4.0 11.0 0.02 0.02 0.02 84 1012.8
20200331065528 46 216 3.0 11.0 0.02 0.02 0.02 83 1012.9
20200331065023 46 247 4.0 12.0 0.02 0.02 0.02 83 1012.9
20200331064532 46 237 0.0 9.0 0.01 0.01 0.01 83 1012.7
20200331064029 46 238 0.0 13.0 0.01 0.01 0.01 83 1012.8
20200331063520 46 293 0.0 13.0 0.01 0.01 0.01 83 1012.7
20200331063041 46 246 0.0 2.0 0.01 0.01 0.01 83 1012.6
20200331062019 47 251 1.0 11.0 0.01 0.01 0.01 82 1012.6
20200331061525 47 254 2.0 8.0 0.00 0.00 0.00 81 1012.7
20200331061016 47 247 0.0 9.0 0.00 0.00 0.00 80 1012.5
20200331060516 47 267 1.0 11.0 0.00 0.00 0.00 80 1012.6
20200331060024 47 245 2.0 11.0 0.00 0.00 0.00 79 1012.6
20200331055513 47 269 0.0 8.0 0.00 0.00 0.00 80 1012.6
20200331055017 47 269 0.0 8.0 0.00 0.00 0.00 80 1012.6
20200331054539 47 286 0.0 9.0 0.00 0.00 0.00 80 1012.8
20200331054012 47 250 0.0 1.0 0.00 0.00 0.00 81 1012.8
20200331053526 48 253 0.0 1.0 0.00 0.00 0.00 81 1012.8
20200331053025 47 245 0.0 1.0 0.00 0.00 0.00 81 1012.8
20200331052513 47 270 0.0 1.0 0.00 0.00 0.00 81 1012.7
20200331052029 47 287 0.0 1.0 0.00 0.00 0.00 81 1012.7
20200331051512 47 278 0.0 1.0 0.00 0.00 0.00 81 1012.7
20200331051011 47 293 0.0 1.0 0.00 0.00 0.00 81 1012.7
20200331050510 48 285 0.0 2.0 0.00 0.00 0.00 80 1012.6
20200331050010 48 285 0.0 8.0 0.00 0.00 0.00 79 1012.5
20200331045509 48 282 0.0 2.0 0.00 0.00 0.00 78 1012.4
20200331045009 48 258 0.0 9.0 0.00 0.00 0.00 77 1012.5
20200331044512 48 266 1.0 13.0 0.00 0.00 0.00 77 1012.4
20200331044011 48 261 1.0 13.0 0.00 0.00 0.00 78 1012.5
20200331043508 48 243 0.0 3.0 0.00 0.00 0.00 78 1012.3
20200331043011 48 211 0.0 3.0 0.00 0.00 0.00 79 1012.4
20200331042507 48 239 0.0 2.0 0.00 0.00 0.00 80 1012.4
20200331042012 48 203 0.0 1.0 0.00 0.00 0.00 80 1012.4
20200331041520 48 219 0.0 7.0 0.00 0.00 0.00 79 1012.3
20200331041013 48 241 1.0 7.0 0.00 0.00 0.00 79 1012.3
20200331040506 49 262 0.0 8.0 0.00 0.00 0.00 78 1012.5
20200331040007 49 222 1.0 9.0 0.00 0.00 0.00 77 1012.5
20200331035515 49 277 1.0 11.0 0.00 0.00 0.00 75 1012.5
20200331035008 49 293 2.0 14.0 0.00 0.00 0.00 74 1012.5
20200331034505 49 223 1.0 10.0 0.00 0.00 0.00 75 1012.6